createdAt,value
2023-01-22T00:00:40.888Z,39.62
2023-01-22T00:01:44.605Z,39.22
2023-01-22T00:02:49.262Z,39.35
2023-01-22T00:03:55.248Z,39.88
2023-01-22T00:04:58.352Z,40.60
2023-01-22T00:06:02.458Z,39.08
2023-01-22T00:07:05.298Z,39.80
2023-01-22T00:08:09.315Z,38.79
2023-01-22T00:09:11.856Z,39.20
2023-01-22T00:10:16.447Z,39.21
2023-01-22T00:11:20.147Z,39.54
2023-01-22T00:12:23.746Z,39.53
2023-01-22T00:13:27.424Z,39.90
2023-01-22T00:14:31.484Z,40.33
2023-01-22T00:15:34.758Z,39.41
2023-01-22T00:16:39.594Z,39.94
2023-01-22T00:17:42.142Z,39.58
2023-01-22T00:18:46.098Z,39.79
2023-01-22T00:19:49.997Z,39.97
2023-01-22T00:20:55.625Z,40.18
2023-01-22T00:21:58.369Z,40.39
2023-01-22T00:23:02.475Z,40.58
2023-01-22T00:24:05.722Z,39.22
2023-01-22T00:25:12.392Z,39.83
2023-01-22T00:26:17.187Z,40.16
2023-01-22T00:27:20.938Z,40.00
2023-01-22T00:28:23.242Z,40.03
2023-01-22T00:29:27.309Z,39.96
2023-01-22T00:30:29.859Z,39.89
2023-01-22T00:31:34.169Z,40.14
2023-01-22T00:32:37.252Z,40.39
2023-01-22T00:33:41.450Z,40.12
2023-01-22T00:34:45.174Z,39.83
2023-01-22T00:35:50.284Z,40.13
2023-01-22T00:36:55.294Z,40.72
2023-01-22T00:37:59.502Z,39.79
2023-01-22T00:39:03.371Z,38.98
2023-01-22T00:40:07.264Z,39.40
2023-01-22T00:41:11.812Z,39.82
2023-01-22T00:42:14.151Z,39.11
2023-01-22T00:43:17.953Z,38.18
2023-01-22T00:44:20.663Z,38.23
2023-01-22T00:45:24.816Z,38.40
2023-01-22T00:46:27.450Z,38.85
2023-01-22T00:47:31.701Z,38.59
2023-01-22T00:48:34.989Z,38.72
2023-01-22T00:49:39.038Z,38.82
2023-01-22T00:50:41.897Z,37.84
2023-01-22T00:51:47.014Z,37.79
2023-01-22T00:52:49.816Z,38.46
2023-01-22T00:53:53.505Z,38.21
2023-01-22T00:54:56.272Z,38.13
2023-01-22T00:56:02.599Z,37.81
2023-01-22T00:57:05.509Z,37.58
2023-01-22T00:58:09.535Z,37.12
2023-01-22T00:59:11.967Z,37.64
2023-01-22T01:00:18.484Z,37.62
2023-01-22T01:01:21.487Z,37.91
2023-01-22T01:02:25.433Z,37.35
2023-01-22T01:03:30.355Z,36.63
2023-01-22T01:04:34.351Z,37.11
2023-01-22T01:05:37.032Z,37.22
2023-01-22T01:06:41.657Z,36.15
2023-01-22T01:07:46.444Z,36.77
2023-01-22T01:08:51.130Z,36.42
2023-01-22T01:09:53.877Z,36.32
2023-01-22T01:10:58.787Z,36.70
2023-01-22T01:12:02.368Z,37.20
2023-01-22T01:13:06.501Z,37.14
2023-01-22T01:14:10.934Z,37.12
2023-01-22T01:15:13.727Z,38.08
2023-01-22T01:16:20.379Z,38.20
2023-01-22T01:17:22.969Z,38.44
2023-01-22T01:18:26.909Z,38.20
2023-01-22T01:19:29.628Z,38.23
2023-01-22T01:20:32.883Z,38.42
2023-01-22T01:21:37.025Z,38.48
2023-01-22T01:22:40.276Z,39.43
2023-01-22T01:23:45.513Z,39.86
2023-01-22T01:24:47.954Z,39.70
2023-01-22T01:25:51.542Z,40.28
2023-01-22T01:26:54.289Z,40.12
2023-01-22T01:27:58.052Z,40.09
2023-01-22T01:29:01.680Z,39.83
2023-01-22T01:30:05.315Z,39.00
2023-01-22T01:31:11.698Z,39.30
2023-01-22T01:32:15.160Z,39.66
2023-01-22T01:33:20.148Z,40.51
2023-01-22T01:34:23.113Z,40.50
2023-01-22T01:35:27.736Z,40.30
2023-01-22T01:36:47.640Z,40.92
2023-01-22T01:37:53.616Z,39.98
2023-01-22T01:38:57.990Z,40.17
2023-01-22T01:40:01.833Z,39.50
2023-01-22T01:41:05.036Z,39.73
2023-01-22T01:42:08.819Z,40.12
2023-01-22T01:43:16.237Z,40.88
2023-01-22T01:44:22.725Z,41.46
2023-01-22T01:45:28.172Z,41.24
2023-01-22T01:46:31.762Z,41.80
2023-01-22T01:47:37.026Z,42.67
2023-01-22T01:48:44.299Z,42.79
2023-01-22T01:49:51.477Z,42.22
2023-01-22T01:50:59.499Z,41.62
2023-01-22T01:52:05.069Z,41.33
2023-01-22T01:53:10.208Z,41.85
2023-01-22T01:54:14.406Z,40.79
2023-01-22T01:55:20.770Z,40.88
2023-01-22T01:56:28.393Z,40.29
2023-01-22T01:57:34.017Z,40.14
2023-01-22T01:58:39.512Z,41.11
2023-01-22T01:59:43.585Z,41.77
2023-01-22T02:00:49.533Z,40.68
2023-01-22T02:01:55.576Z,41.17
2023-01-22T02:02:59.821Z,40.96
2023-01-22T02:04:04.166Z,41.07
2023-01-22T02:05:09.722Z,41.00
2023-01-22T02:06:14.845Z,40.48
2023-01-22T02:07:19.265Z,40.57
2023-01-22T02:08:22.007Z,39.41
2023-01-22T02:09:27.921Z,40.47
2023-01-22T02:10:30.689Z,39.65
2023-01-22T02:11:35.815Z,39.89
2023-01-22T02:12:39.072Z,39.95
2023-01-22T02:13:51.555Z,39.48
2023-01-22T02:14:54.882Z,40.08
2023-01-22T02:15:58.881Z,39.10
2023-01-22T02:17:03.144Z,39.40
2023-01-22T02:18:08.202Z,40.22
2023-01-22T02:19:11.299Z,39.29
2023-01-22T02:20:16.659Z,39.04
2023-01-22T02:21:35.778Z,38.82
2023-01-22T02:22:40.867Z,38.20
2023-01-22T02:23:43.530Z,38.76
2023-01-22T02:24:47.541Z,38.63
2023-01-22T02:25:50.627Z,38.88
2023-01-22T02:26:54.486Z,38.77
2023-01-22T02:27:57.284Z,39.74
2023-01-22T02:29:01.213Z,39.22
2023-01-22T02:30:04.852Z,39.08
2023-01-22T02:31:08.269Z,38.88
2023-01-22T02:32:11.573Z,38.84
2023-01-22T02:33:15.890Z,38.81
2023-01-22T02:34:18.476Z,38.82
2023-01-22T02:35:22.220Z,38.67
2023-01-22T02:36:25.184Z,38.95
2023-01-22T02:37:30.852Z,39.28
2023-01-22T02:38:34.190Z,38.92
2023-01-22T02:39:38.112Z,38.97
2023-01-22T02:40:49.387Z,38.20
2023-01-22T02:41:53.520Z,38.22
2023-01-22T02:42:56.675Z,37.75
2023-01-22T02:44:00.916Z,37.75
2023-01-22T02:45:03.273Z,38.90
2023-01-22T02:46:07.204Z,38.23
2023-01-22T02:47:10.542Z,37.25
2023-01-22T02:48:14.255Z,37.81
2023-01-22T02:49:17.083Z,38.59
2023-01-22T02:50:20.687Z,38.26
2023-01-22T02:51:24.033Z,38.02
2023-01-22T02:52:27.682Z,38.09
2023-01-22T02:53:31.540Z,38.80
2023-01-22T02:54:35.120Z,38.93
2023-01-22T02:55:38.789Z,39.18
2023-01-22T02:56:42.723Z,38.43
2023-01-22T02:57:44.920Z,38.58
2023-01-22T02:58:48.538Z,38.96
2023-01-22T02:59:51.542Z,38.46
2023-01-22T03:00:55.675Z,38.78
2023-01-22T03:01:58.541Z,39.43
2023-01-22T03:03:07.927Z,38.29
2023-01-22T03:04:11.311Z,37.90
2023-01-22T03:05:14.715Z,38.18
2023-01-22T03:06:21.538Z,38.58
2023-01-22T03:07:25.132Z,38.09
2023-01-22T03:08:27.629Z,37.64
2023-01-22T03:09:32.975Z,37.13
2023-01-22T03:10:35.435Z,38.12
2023-01-22T03:11:40.279Z,37.06
2023-01-22T03:13:02.440Z,36.91
2023-01-22T03:14:24.398Z,38.02
2023-01-22T03:15:45.762Z,37.41
2023-01-22T03:17:07.741Z,38.33
2023-01-22T03:18:29.148Z,38.08
2023-01-22T03:19:50.041Z,37.35
2023-01-22T03:21:10.901Z,37.05
2023-01-22T03:22:15.787Z,37.04
2023-01-22T03:23:18.221Z,37.21
2023-01-22T03:24:21.882Z,37.51
2023-01-22T03:25:25.699Z,37.24
2023-01-22T03:26:31.838Z,36.74
2023-01-22T03:27:34.770Z,37.12
2023-01-22T03:28:39.175Z,37.39
2023-01-22T03:29:41.571Z,37.45
2023-01-22T03:30:44.797Z,38.12
2023-01-22T03:31:48.709Z,37.41
2023-01-22T03:32:52.119Z,37.89
2023-01-22T03:33:54.984Z,37.71
2023-01-22T03:34:58.563Z,37.45
2023-01-22T03:36:01.997Z,38.78
2023-01-22T03:37:05.720Z,37.25
2023-01-22T03:38:08.462Z,37.16
2023-01-22T03:39:12.581Z,37.35
2023-01-22T03:40:15.733Z,37.64
2023-01-22T03:41:21.522Z,36.78
2023-01-22T03:42:25.286Z,37.33
2023-01-22T03:43:29.825Z,37.81
2023-01-22T03:44:32.423Z,37.77
2023-01-22T03:45:36.475Z,37.63
2023-01-22T03:46:41.526Z,37.75
2023-01-22T03:47:44.054Z,38.05
2023-01-22T03:48:51.953Z,37.84
2023-01-22T03:49:54.802Z,37.38
2023-01-22T03:50:58.437Z,37.72
2023-01-22T03:52:01.812Z,37.90
2023-01-22T03:53:05.495Z,37.60
2023-01-22T03:54:11.106Z,36.38
2023-01-22T03:55:13.826Z,36.79
2023-01-22T03:56:19.729Z,37.22
2023-01-22T03:57:23.865Z,37.59
2023-01-22T03:58:27.621Z,38.39
2023-01-22T03:59:31.437Z,37.73
2023-01-22T04:00:34.398Z,37.32
2023-01-22T04:01:39.117Z,38.15
2023-01-22T04:02:42.103Z,37.10
2023-01-22T04:03:45.887Z,37.83
2023-01-22T04:04:48.419Z,36.73
2023-01-22T04:05:51.858Z,37.28
2023-01-22T04:06:55.805Z,37.82
2023-01-22T04:07:58.346Z,38.35
2023-01-22T04:09:02.265Z,38.76
2023-01-22T04:10:05.523Z,38.88
2023-01-22T04:11:10.389Z,38.59
2023-01-22T04:12:13.287Z,38.67
2023-01-22T04:13:18.262Z,39.19
2023-01-22T04:14:22.276Z,38.86
2023-01-22T04:15:26.001Z,38.16
2023-01-22T04:16:30.175Z,38.51
2023-01-22T04:17:33.811Z,38.91
2023-01-22T04:18:38.188Z,38.96
2023-01-22T04:19:41.316Z,38.41
2023-01-22T04:20:45.875Z,38.74
2023-01-22T04:21:49.446Z,38.69
2023-01-22T04:22:54.069Z,39.34
2023-01-22T04:23:57.854Z,38.87
2023-01-22T04:25:02.441Z,38.82
2023-01-22T04:26:05.871Z,39.05
2023-01-22T04:27:09.716Z,38.18
2023-01-22T04:28:14.813Z,38.79
2023-01-22T04:29:19.807Z,38.12
2023-01-22T04:30:22.866Z,38.47
2023-01-22T04:31:26.561Z,38.56
2023-01-22T04:32:29.917Z,37.74
2023-01-22T04:33:33.820Z,37.16
2023-01-22T04:34:36.675Z,38.30
2023-01-22T04:35:41.205Z,37.42
2023-01-22T04:36:45.519Z,36.54
2023-01-22T04:37:48.279Z,36.90
2023-01-22T04:38:51.784Z,36.70
2023-01-22T04:39:54.554Z,36.92
2023-01-22T04:40:58.001Z,37.60
2023-01-22T04:42:00.547Z,37.13
2023-01-22T04:43:05.892Z,37.79
2023-01-22T04:44:09.779Z,37.61
2023-01-22T04:45:13.938Z,36.86
2023-01-22T04:46:17.695Z,37.22
2023-01-22T04:47:20.554Z,37.41
2023-01-22T04:48:25.221Z,37.82
2023-01-22T04:49:28.094Z,38.04
2023-01-22T04:50:33.419Z,37.82
2023-01-22T04:51:37.340Z,37.68
2023-01-22T04:52:40.543Z,37.92
2023-01-22T04:53:44.411Z,37.49
2023-01-22T04:54:48.137Z,38.22
2023-01-22T04:55:51.934Z,38.45
2023-01-22T04:56:54.454Z,38.48
2023-01-22T04:57:59.544Z,37.08
2023-01-22T04:59:02.968Z,37.83
2023-01-22T05:00:11.404Z,37.58
2023-01-22T05:01:15.739Z,39.22
2023-01-22T05:02:19.692Z,38.63
2023-01-22T05:03:22.292Z,39.08
2023-01-22T05:04:25.897Z,38.93
2023-01-22T05:05:30.642Z,39.58
2023-01-22T05:06:34.250Z,39.34
2023-01-22T05:07:36.916Z,39.49
2023-01-22T05:08:40.660Z,40.05
2023-01-22T05:09:43.215Z,39.98
2023-01-22T05:10:47.014Z,39.78
2023-01-22T05:11:50.163Z,40.00
2023-01-22T05:12:54.368Z,39.83
2023-01-22T05:13:57.641Z,39.49
2023-01-22T05:15:02.041Z,39.90
2023-01-22T05:16:04.715Z,40.26
2023-01-22T05:17:10.260Z,40.45
2023-01-22T05:18:12.557Z,40.05
2023-01-22T05:19:16.128Z,40.31
2023-01-22T05:20:19.904Z,40.12
2023-01-22T05:21:23.933Z,40.35
2023-01-22T05:22:27.669Z,40.41
2023-01-22T05:23:30.262Z,40.56
2023-01-22T05:24:33.738Z,39.95
2023-01-22T05:25:36.068Z,40.44
2023-01-22T05:26:39.843Z,41.06
2023-01-22T05:27:42.810Z,40.75
2023-01-22T05:28:46.300Z,40.84
2023-01-22T05:29:49.037Z,41.23
2023-01-22T05:30:52.935Z,40.85
2023-01-22T05:31:56.390Z,40.32
2023-01-22T05:33:01.637Z,41.21
2023-01-22T05:34:04.370Z,40.01
2023-01-22T05:35:08.366Z,40.19
2023-01-22T05:36:13.276Z,40.02
2023-01-22T05:37:17.010Z,40.46
2023-01-22T05:38:19.620Z,41.05
2023-01-22T05:39:24.235Z,41.31
2023-01-22T05:40:26.933Z,40.72
2023-01-22T05:41:30.313Z,40.58
2023-01-22T05:42:32.862Z,41.04
2023-01-22T05:43:39.271Z,41.63
2023-01-22T05:44:42.470Z,41.88
2023-01-22T05:45:46.334Z,41.76
2023-01-22T05:46:48.842Z,41.33
2023-01-22T05:47:54.050Z,41.12
2023-01-22T05:48:58.737Z,41.21
2023-01-22T05:50:02.099Z,41.46
2023-01-22T05:51:04.889Z,40.73
2023-01-22T05:52:10.962Z,40.81
2023-01-22T05:53:13.394Z,40.24
2023-01-22T05:54:17.263Z,40.38
2023-01-22T05:55:20.850Z,40.62
2023-01-22T05:56:23.380Z,40.69
2023-01-22T05:57:28.021Z,40.92
2023-01-22T05:58:31.584Z,41.60
2023-01-22T05:59:35.317Z,42.37
2023-01-22T06:00:38.463Z,42.54
2023-01-22T06:01:41.910Z,41.95
2023-01-22T06:02:44.432Z,41.95
2023-01-22T06:03:48.481Z,42.36
2023-01-22T06:04:52.310Z,42.03
2023-01-22T06:06:00.314Z,41.60
2023-01-22T06:07:03.257Z,42.08
2023-01-22T06:08:07.536Z,42.38
2023-01-22T06:09:12.502Z,41.78
2023-01-22T06:10:17.548Z,42.86
2023-01-22T06:11:20.309Z,43.35
2023-01-22T06:12:24.673Z,43.31
2023-01-22T06:13:27.933Z,43.27
2023-01-22T06:14:31.438Z,43.10
2023-01-22T06:15:34.331Z,43.31
2023-01-22T06:16:38.404Z,43.04
2023-01-22T06:17:40.882Z,43.32
2023-01-22T06:18:44.672Z,43.35
2023-01-22T06:19:48.487Z,43.49
2023-01-22T06:20:54.417Z,43.72
2023-01-22T06:21:57.267Z,43.95
2023-01-22T06:23:01.444Z,43.31
2023-01-22T06:24:04.877Z,43.94
2023-01-22T06:25:10.120Z,43.83
2023-01-22T06:26:12.841Z,43.92
2023-01-22T06:27:17.308Z,44.16
2023-01-22T06:28:19.676Z,44.06
2023-01-22T06:29:23.095Z,43.55
2023-01-22T06:30:25.463Z,43.29
2023-01-22T06:31:29.305Z,43.15
2023-01-22T06:32:31.943Z,43.35
2023-01-22T06:33:36.925Z,43.53
2023-01-22T06:34:39.715Z,44.01
2023-01-22T06:35:43.769Z,43.90
2023-01-22T06:36:47.630Z,43.60
2023-01-22T06:37:50.896Z,43.64
2023-01-22T06:38:53.544Z,44.06
2023-01-22T06:39:56.933Z,44.59
2023-01-22T06:41:01.307Z,44.06
2023-01-22T06:42:05.330Z,44.35
2023-01-22T06:43:10.779Z,44.51
2023-01-22T06:44:14.754Z,45.00
2023-01-22T06:45:17.995Z,45.13
2023-01-22T06:46:21.822Z,45.15
2023-01-22T06:47:24.549Z,45.14
2023-01-22T06:48:28.236Z,45.41
2023-01-22T06:49:31.828Z,45.33
2023-01-22T06:50:35.803Z,45.02
2023-01-22T06:51:38.164Z,45.64
2023-01-22T06:52:43.570Z,45.11
2023-01-22T06:53:46.464Z,44.97
2023-01-22T06:54:50.412Z,45.24
2023-01-22T06:55:53.747Z,45.56
2023-01-22T06:56:56.231Z,45.88
2023-01-22T06:58:00.056Z,45.69
2023-01-22T06:59:02.249Z,45.69
2023-01-22T07:00:07.662Z,45.83
2023-01-22T07:01:11.931Z,45.17
2023-01-22T07:02:17.328Z,45.43
2023-01-22T07:03:20.902Z,45.09
2023-01-22T07:04:23.369Z,44.63
2023-01-22T07:05:27.847Z,44.11
2023-01-22T07:06:30.240Z,44.27
2023-01-22T07:07:33.695Z,43.22
2023-01-22T07:08:37.690Z,42.71
2023-01-22T07:09:41.251Z,43.33
2023-01-22T07:10:45.037Z,43.14
2023-01-22T07:11:47.473Z,43.53
2023-01-22T07:12:55.833Z,43.23
2023-01-22T07:13:58.381Z,42.59
2023-01-22T07:15:01.955Z,43.16
2023-01-22T07:16:05.708Z,42.89
2023-01-22T07:17:09.077Z,43.27
2023-01-22T07:18:14.519Z,43.43
2023-01-22T07:19:18.212Z,43.57
2023-01-22T07:20:22.230Z,44.78
2023-01-22T07:21:27.350Z,44.96
2023-01-22T07:22:31.744Z,44.25
2023-01-22T07:23:35.407Z,44.02
2023-01-22T07:24:39.653Z,44.39
2023-01-22T07:25:44.784Z,44.29
2023-01-22T07:26:49.522Z,44.17
2023-01-22T07:27:51.940Z,44.44
2023-01-22T07:28:55.399Z,44.64
2023-01-22T07:29:57.806Z,45.07
2023-01-22T07:31:02.955Z,45.76
2023-01-22T07:32:06.515Z,46.01
2023-01-22T07:33:12.682Z,46.14
2023-01-22T07:34:15.146Z,46.44
2023-01-22T07:35:19.464Z,45.99
2023-01-22T07:36:22.803Z,46.19
2023-01-22T07:37:25.216Z,46.59
2023-01-22T07:38:29.906Z,46.98
2023-01-22T07:39:32.321Z,46.68
2023-01-22T07:40:37.679Z,46.54
2023-01-22T07:41:39.981Z,46.50
2023-01-22T07:42:43.552Z,47.50
2023-01-22T07:43:46.327Z,46.92
2023-01-22T07:44:49.609Z,47.79
2023-01-22T07:45:52.002Z,48.22
2023-01-22T07:46:55.934Z,48.30
2023-01-22T07:47:59.727Z,48.29
2023-01-22T07:49:03.388Z,47.65
2023-01-22T07:50:07.117Z,46.88
2023-01-22T07:51:12.657Z,46.73
2023-01-22T07:52:16.523Z,45.75
2023-01-22T07:53:19.138Z,45.26
2023-01-22T07:54:23.109Z,45.19
2023-01-22T07:55:25.956Z,45.33
2023-01-22T07:56:31.049Z,46.02
2023-01-22T07:57:35.329Z,46.17
2023-01-22T07:58:39.331Z,46.17
2023-01-22T07:59:42.932Z,46.07
2023-01-22T08:00:45.758Z,46.61
2023-01-22T08:01:50.764Z,46.77
2023-01-22T08:02:54.263Z,46.54
2023-01-22T08:03:58.523Z,46.77
2023-01-22T08:05:00.815Z,47.14
2023-01-22T08:06:09.778Z,48.39
2023-01-22T08:07:17.130Z,48.49
2023-01-22T08:08:21.635Z,48.89
2023-01-22T08:09:25.048Z,47.32
2023-01-22T08:10:28.839Z,47.05
2023-01-22T08:11:34.497Z,46.59
2023-01-22T08:12:38.668Z,46.80
2023-01-22T08:13:42.510Z,47.75
2023-01-22T08:14:45.067Z,47.56
2023-01-22T08:15:48.935Z,47.86
2023-01-22T08:16:52.873Z,47.49
2023-01-22T08:17:55.383Z,48.61
2023-01-22T08:18:58.885Z,47.81
2023-01-22T08:20:01.362Z,47.54
2023-01-22T08:21:05.480Z,47.13
2023-01-22T08:22:08.746Z,46.72
2023-01-22T08:23:12.303Z,46.71
2023-01-22T08:24:16.305Z,47.97
2023-01-22T08:25:19.857Z,46.98
2023-01-22T08:26:22.418Z,46.34
2023-01-22T08:27:27.354Z,46.79
2023-01-22T08:28:30.429Z,45.72
2023-01-22T08:29:33.675Z,45.44
2023-01-22T08:30:45.480Z,44.41
2023-01-22T08:31:49.982Z,43.04
2023-01-22T08:32:55.284Z,42.54
2023-01-22T08:34:00.480Z,42.57
2023-01-22T08:35:02.861Z,41.29
2023-01-22T08:36:07.466Z,41.47
2023-01-22T08:37:09.774Z,41.25
2023-01-22T08:38:13.996Z,41.60
2023-01-22T08:39:17.329Z,41.23
2023-01-22T08:40:20.288Z,40.09
2023-01-22T08:41:24.673Z,39.80
2023-01-22T08:42:28.741Z,40.44
2023-01-22T08:43:32.911Z,40.55
2023-01-22T08:44:35.529Z,40.71
2023-01-22T08:45:40.070Z,39.31
2023-01-22T08:46:44.039Z,39.51
2023-01-22T08:47:47.565Z,39.49
2023-01-22T08:48:50.895Z,38.61
2023-01-22T08:49:54.281Z,38.02
2023-01-22T08:51:00.300Z,37.91
2023-01-22T08:52:04.039Z,37.31
2023-01-22T08:53:06.551Z,37.07
2023-01-22T08:54:10.069Z,37.59
2023-01-22T08:55:12.885Z,36.99
2023-01-22T08:56:16.175Z,36.71
2023-01-22T08:57:18.409Z,37.05
2023-01-22T08:58:25.464Z,36.18
2023-01-22T08:59:30.980Z,36.23
2023-01-22T09:00:33.800Z,36.38
2023-01-22T09:01:37.407Z,36.30
2023-01-22T09:02:40.084Z,35.75
2023-01-22T09:03:44.056Z,35.13
2023-01-22T09:04:46.703Z,35.24
2023-01-22T09:05:51.137Z,34.84
2023-01-22T09:06:54.581Z,34.41
2023-01-22T09:07:57.311Z,33.73
2023-01-22T09:09:01.789Z,32.76
2023-01-22T09:10:08.171Z,32.20
2023-01-22T09:11:11.961Z,32.99
2023-01-22T09:12:14.381Z,33.91
2023-01-22T09:13:18.179Z,34.25
2023-01-22T09:14:23.077Z,34.19
2023-01-22T09:15:26.593Z,34.54
2023-01-22T09:16:30.992Z,34.40
2023-01-22T09:17:34.227Z,34.54
2023-01-22T09:18:37.891Z,33.82
2023-01-22T09:19:40.601Z,33.17
2023-01-22T09:20:47.039Z,34.17
2023-01-22T09:21:50.679Z,33.35
2023-01-22T09:22:53.253Z,33.03
2023-01-22T09:23:57.154Z,33.18
2023-01-22T09:25:00.176Z,32.43
2023-01-22T09:26:04.493Z,33.44
2023-01-22T09:27:10.060Z,33.28
2023-01-22T09:28:12.635Z,32.51
2023-01-22T09:29:15.977Z,32.16
2023-01-22T09:30:20.888Z,31.16
2023-01-22T09:31:24.605Z,30.80
2023-01-22T09:32:28.074Z,29.89
2023-01-22T09:33:30.718Z,29.50
2023-01-22T09:34:34.634Z,30.38
2023-01-22T09:35:37.640Z,30.03
2023-01-22T09:36:43.085Z,30.20
2023-01-22T09:37:45.472Z,29.71
2023-01-22T09:38:49.597Z,29.68
2023-01-22T09:39:54.108Z,29.34
2023-01-22T09:40:59.485Z,29.61
2023-01-22T09:42:05.130Z,29.26
2023-01-22T09:43:23.591Z,29.25
2023-01-22T09:44:35.065Z,29.06
2023-01-22T09:45:42.231Z,29.38
2023-01-22T09:46:47.547Z,29.00
2023-01-22T09:47:55.616Z,28.17
2023-01-22T09:49:03.330Z,29.17
2023-01-22T09:50:13.845Z,29.61
2023-01-22T09:51:17.326Z,30.17
2023-01-22T09:52:21.253Z,29.47
2023-01-22T09:53:23.808Z,29.51
2023-01-22T09:54:29.094Z,29.76
2023-01-22T09:55:38.275Z,29.32
2023-01-22T09:56:45.199Z,28.99
2023-01-22T09:57:50.834Z,29.68
2023-01-22T09:58:56.618Z,29.16
2023-01-22T09:59:59.397Z,29.89
2023-01-22T10:01:07.417Z,28.76
2023-01-22T10:02:23.429Z,28.54
2023-01-22T10:03:34.131Z,29.15
2023-01-22T10:04:44.403Z,29.35
2023-01-22T10:05:52.945Z,29.55
2023-01-22T10:06:59.494Z,29.03
2023-01-22T10:08:08.526Z,27.84
2023-01-22T10:09:15.783Z,27.31
2023-01-22T10:10:22.451Z,27.36
2023-01-22T10:11:25.716Z,27.13
2023-01-22T10:12:30.512Z,26.68
2023-01-22T10:13:34.276Z,26.34
2023-01-22T10:14:37.562Z,26.41
2023-01-22T10:15:40.169Z,26.38
2023-01-22T10:16:45.776Z,26.29
2023-01-22T10:17:48.439Z,26.04
2023-01-22T10:18:56.785Z,25.79
2023-01-22T10:20:04.537Z,25.63
2023-01-22T10:21:19.245Z,24.93
2023-01-22T10:22:24.667Z,24.17
2023-01-22T10:23:29.359Z,23.81
2023-01-22T10:24:32.605Z,23.86
2023-01-22T10:25:35.050Z,23.31
2023-01-22T10:26:40.301Z,22.88
2023-01-22T10:27:45.298Z,22.89
2023-01-22T10:28:50.526Z,22.91
2023-01-22T10:30:02.419Z,22.30
2023-01-22T10:31:06.064Z,22.46
2023-01-22T10:32:24.044Z,21.04
2023-01-22T10:33:29.278Z,20.75
2023-01-22T10:34:36.058Z,20.62
2023-01-22T10:35:43.396Z,21.20
2023-01-22T10:36:51.542Z,21.45
2023-01-22T10:37:57.370Z,21.66
2023-01-22T10:39:05.900Z,20.68
2023-01-22T10:40:22.688Z,21.05
2023-01-22T10:41:26.487Z,20.88
2023-01-22T10:42:29.829Z,21.40
2023-01-22T10:43:35.393Z,21.55
2023-01-22T10:44:38.276Z,21.06
2023-01-22T10:45:52.525Z,20.92
2023-01-22T10:46:57.034Z,20.77
2023-01-22T10:48:13.403Z,21.78
2023-01-22T10:49:18.807Z,20.90
2023-01-22T10:50:21.771Z,21.29
2023-01-22T10:51:32.727Z,21.14
2023-01-22T10:52:40.015Z,21.81
2023-01-22T10:53:48.137Z,21.94
2023-01-22T10:54:55.317Z,21.94
2023-01-22T10:56:01.365Z,21.48
2023-01-22T10:57:07.837Z,21.80
2023-01-22T10:58:16.784Z,22.34
2023-01-22T10:59:24.909Z,22.87
2023-01-22T11:00:46.688Z,23.18
2023-01-22T11:02:00.409Z,23.21
2023-01-22T11:03:21.574Z,23.40
2023-01-22T11:04:28.850Z,23.28
2023-01-22T11:05:34.328Z,22.54
2023-01-22T11:06:43.743Z,22.53
2023-01-22T11:07:48.335Z,22.97
2023-01-22T11:08:54.804Z,22.69
2023-01-22T11:10:09.708Z,22.79
2023-01-22T11:11:17.312Z,21.90
2023-01-22T11:12:23.549Z,23.54
2023-01-22T11:13:32.216Z,24.26
2023-01-22T11:14:38.267Z,23.96
2023-01-22T11:15:46.469Z,23.86
2023-01-22T11:16:53.323Z,23.02
2023-01-22T11:18:00.261Z,23.70
2023-01-22T11:19:11.219Z,22.24
2023-01-22T11:20:23.599Z,22.19
2023-01-22T11:21:39.107Z,23.28
2023-01-22T11:22:46.670Z,23.47
2023-01-22T11:23:55.391Z,24.15
2023-01-22T11:24:58.041Z,24.74
2023-01-22T11:26:16.527Z,24.54
2023-01-22T11:27:35.510Z,24.15
2023-01-22T11:28:44.687Z,23.51
2023-01-22T11:30:08.729Z,23.23
2023-01-22T11:31:24.478Z,22.53
2023-01-22T11:32:42.526Z,23.24
2023-01-22T11:34:03.092Z,23.58
2023-01-22T11:35:19.461Z,23.86
2023-01-22T11:36:27.735Z,22.43
2023-01-22T11:37:45.840Z,22.47
2023-01-22T11:38:52.858Z,23.17
2023-01-22T11:40:13.198Z,21.99
2023-01-22T11:41:33.609Z,22.36
2023-01-22T11:42:52.466Z,23.18
2023-01-22T11:44:14.838Z,23.35
2023-01-22T11:45:31.070Z,24.72
2023-01-22T11:46:46.934Z,24.66
2023-01-22T11:48:07.918Z,23.49
2023-01-22T11:49:22.426Z,22.57
2023-01-22T11:50:31.890Z,22.24
2023-01-22T11:51:40.623Z,21.45
2023-01-22T11:52:48.417Z,22.17
2023-01-22T11:54:05.693Z,21.08
2023-01-22T11:55:22.788Z,22.07
2023-01-22T11:56:42.533Z,21.94
2023-01-22T11:57:56.354Z,21.38
2023-01-22T11:59:09.752Z,22.00
2023-01-22T12:00:31.251Z,22.17
2023-01-22T12:01:46.872Z,21.56
2023-01-22T12:03:20.978Z,21.88
2023-01-22T12:04:40.284Z,21.81
2023-01-22T12:05:55.210Z,21.94
2023-01-22T12:07:23.134Z,21.18
2023-01-22T12:08:41.981Z,21.83
2023-01-22T12:09:56.793Z,21.49
2023-01-22T12:11:18.012Z,21.64
2023-01-22T12:12:35.662Z,22.10
2023-01-22T12:14:10.548Z,22.26
2023-01-22T12:15:26.549Z,22.68
2023-01-22T12:16:39.747Z,22.87
2023-01-22T12:17:53.860Z,24.04
2023-01-22T12:19:17.457Z,26.35
2023-01-22T12:20:51.169Z,25.87
2023-01-22T12:22:01.911Z,26.08
2023-01-22T12:23:08.964Z,27.33
2023-01-22T12:24:19.854Z,27.95
2023-01-22T12:25:39.763Z,28.76
2023-01-22T12:26:49.194Z,28.28
2023-01-22T12:28:00.139Z,28.86
2023-01-22T12:29:07.982Z,28.24
2023-01-22T12:30:21.092Z,27.95
2023-01-22T12:31:30.038Z,27.61
2023-01-22T12:32:38.172Z,27.33
2023-01-22T12:33:42.356Z,27.78
2023-01-22T12:34:52.311Z,27.04
2023-01-22T12:36:03.428Z,27.08
2023-01-22T12:37:08.328Z,26.40
2023-01-22T12:38:20.782Z,24.88
2023-01-22T12:39:28.439Z,25.62
2023-01-22T12:40:50.093Z,26.20
2023-01-22T12:42:02.109Z,25.56
2023-01-22T12:43:06.592Z,24.36
2023-01-22T12:44:21.700Z,24.31
2023-01-22T12:45:34.589Z,25.95
2023-01-22T12:46:49.931Z,25.47
2023-01-22T12:47:59.187Z,26.12
2023-01-22T12:49:07.547Z,27.20
2023-01-22T12:50:22.580Z,27.87
2023-01-22T12:51:35.672Z,28.82
2023-01-22T12:52:41.099Z,28.81
2023-01-22T12:53:44.937Z,28.91
2023-01-22T12:54:55.511Z,29.38
2023-01-22T12:56:01.242Z,28.98
2023-01-22T12:57:23.848Z,27.93
2023-01-22T12:58:29.018Z,28.48
2023-01-22T12:59:45.501Z,29.46
2023-01-22T13:01:01.078Z,29.35
2023-01-22T13:02:06.865Z,29.54
2023-01-22T13:03:31.735Z,29.25
2023-01-22T13:04:34.827Z,29.48
2023-01-22T13:05:47.039Z,30.17
2023-01-22T13:06:50.730Z,30.48
2023-01-22T13:08:04.304Z,31.75
2023-01-22T13:09:23.176Z,32.35
2023-01-22T13:10:30.206Z,32.39
2023-01-22T13:11:35.522Z,32.37
2023-01-22T13:12:43.913Z,32.55
2023-01-22T13:13:50.719Z,31.22
2023-01-22T13:14:54.151Z,30.69
2023-01-22T13:16:01.746Z,30.55
2023-01-22T13:17:18.052Z,30.85
2023-01-22T13:18:24.090Z,30.96
2023-01-22T13:19:30.297Z,30.26
2023-01-22T13:20:36.610Z,30.77
2023-01-22T13:21:40.205Z,31.19
2023-01-22T13:22:44.837Z,30.82
2023-01-22T13:23:50.666Z,30.60
2023-01-22T13:24:55.017Z,29.82
2023-01-22T13:25:59.905Z,28.72
2023-01-22T13:27:04.853Z,29.08
2023-01-22T13:28:17.249Z,29.00
2023-01-22T13:29:26.935Z,29.17
2023-01-22T13:30:31.114Z,28.78
2023-01-22T13:31:35.265Z,28.35
2023-01-22T13:32:37.608Z,28.76
2023-01-22T13:33:41.554Z,28.57
2023-01-22T13:34:45.314Z,27.87
2023-01-22T13:35:47.930Z,27.49
2023-01-22T13:36:52.863Z,27.49
2023-01-22T13:37:56.858Z,27.95
2023-01-22T13:39:01.002Z,27.57
2023-01-22T13:40:13.555Z,26.94
2023-01-22T13:41:26.065Z,27.03
2023-01-22T13:42:29.690Z,26.71
2023-01-22T13:43:36.811Z,26.68
2023-01-22T13:44:41.860Z,26.75
2023-01-22T13:45:45.711Z,27.49
2023-01-22T13:46:50.543Z,27.41
2023-01-22T13:47:57.466Z,25.22
2023-01-22T13:49:07.653Z,23.70
2023-01-22T13:50:20.159Z,24.81
2023-01-22T13:51:23.692Z,27.85
2023-01-22T13:52:28.411Z,29.56
2023-01-22T13:53:36.483Z,29.68
2023-01-22T13:54:43.546Z,29.34
2023-01-22T13:55:46.861Z,29.55
2023-01-22T13:56:49.565Z,30.79
2023-01-22T13:57:54.486Z,32.36
2023-01-22T13:59:17.248Z,32.31
2023-01-22T14:00:25.405Z,31.30
2023-01-22T14:01:32.680Z,30.95
2023-01-22T14:02:37.149Z,30.36
2023-01-22T14:03:42.949Z,30.44
2023-01-22T14:04:46.182Z,30.63
2023-01-22T14:05:50.443Z,30.46
2023-01-22T14:06:53.304Z,29.44
2023-01-22T14:08:07.211Z,28.01
2023-01-22T14:09:10.997Z,29.21